Sarah Desgagnes — XJAB — position and weather

sailwx.info

Track history (hours):
 
Tides and Currents Weather Stations Pressure Air Temp Water Temp Dewpoint Dewpoint Depression Visibility Wind Speed Wind Dir Waves Ship Positions

Sarah Desgagnes

Last reported at 2014-Oct-20 14:33 UTC. Time now 2014-Oct-23 06:41 UTC.
Position N 43°59' W 076°33'.

Length 148 m; draft 7.3 m.

Type: Tanker. MMSI: 316012308.

Date/timePositionNaut miles runAvg speedWind from/ knotsBaromVisibWave heightAir tempDewpointWater temp
2014-Oct-20 14:33N 43°59' W 076°33'1312.8
2014-Oct-20 13:33N 44°08' W 076°20'1212.0
2014-Oct-20 12:33N 44°15' W 076°06'83 7.3
2014-Oct-20 01:15N 45°04' W 074°32'6 8.5
2014-Oct-20 00:34N 45°08' W 074°26'1111.0
2014-Oct-19 23:34N 45°14' W 074°13'9 8.7
2014-Oct-19 22:34N 45°14' W 074°00'6 5.6
2014-Oct-19 21:34N 45°18' W 073°56'1 1.0
2014-Oct-19 20:34N 45°19' W 073°55'2 2.2
2014-Oct-19 19:33N 45°21' W 073°53'6 5.5
2014-Oct-19 18:34N 45°24' W 073°47'7 7.4
2014-Oct-19 17:34N 45°24' W 073°36'2 2.0
2014-Oct-19 16:33N 45°24' W 073°33'5 5.0
2014-Oct-19 15:33N 45°29' W 073°31'1 1.0
2014-Oct-19 14:33N 45°30' W 073°31'3 3.2
2014-Oct-19 13:33N 45°33' W 073°31'3 0.1
2014-Oct-18 13:33N 45°37' W 073°30'6 4.4
2014-Oct-18 12:15N 45°31' W 073°31'2 2.3
2014-Oct-18 11:33N 45°29' W 073°31'4 4.0
2014-Oct-18 10:33N 45°26' W 073°30'3 3.1
2014-Oct-18 09:33N 45°24' W 073°34'3 2.9
2014-Oct-18 08:33N 45°24' W 073°38'5 4.8
2014-Oct-18 07:33N 45°24' W 073°45'9 8.6
2014-Oct-18 06:33N 45°19' W 073°55'1 1.0
2014-Oct-18 05:33N 45°18' W 073°56'3 3.4
2014-Oct-18 04:33N 45°15' W 073°58'7 6.7
2014-Oct-18 03:33N 45°14' W 074°07'102 8.2
2014-Oct-17 15:13N 44°15' W 076°05'912.9
2014-Oct-17 14:33N 44°12' W 076°16'1313.0
2014-Oct-17 13:33N 44°02' W 076°27'  
2014-Oct-15 03:00N 43°36' W 078°18'7212.9 150 / 131009.2 20.316.016.0
2014-Oct-14 21:24N 43°56' W 076°42'1012.2
2014-Oct-14 20:33N 44°01' W 076°30'1211.8
2014-Oct-14 19:33N 44°10' W 076°19'1111.0
2014-Oct-14 18:33N 44°15' W 076°06'83 6.8
2014-Oct-14 06:22N 45°04' W 074°31'7 8.8
2014-Oct-14 05:33N 45°09' W 074°23'1110.8
2014-Oct-14 04:33N 45°14' W 074°10'8 7.5
2014-Oct-14 03:33N 45°14' W 073°59'5 4.7
2014-Oct-14 02:33N 45°18' W 073°56'1 0.8
2014-Oct-14 01:33N 45°19' W 073°55'1 1.2
2014-Oct-14 00:33N 45°20' W 073°54'6 6.1
2014-Oct-13 23:33N 45°24' W 073°47'7 6.9
2014-Oct-13 22:33N 45°24' W 073°38'3 2.8
2014-Oct-13 21:33N 45°24' W 073°34'3 3.3
2014-Oct-13 20:34N 45°27' W 073°30'3 3.2
2014-Oct-13 19:33N 45°30' W 073°31'0 0.5
2014-Oct-13 18:33N 45°30' W 073°31'0 0.4
2014-Oct-13 17:29N 45°31' W 073°31'4 3.9
2014-Oct-13 16:33N 45°34' W 073°31'4 0.2
2014-Oct-13 01:26N 45°38' W 073°30'1 1.1
2014-Oct-13 00:33N 45°37' W 073°30'0 0.0
2014-Oct-11 06:17N 45°37' W 073°30'9 1.1
2014-Oct-10 21:33N 45°27' W 073°30'4 3.9
2014-Oct-10 20:33N 45°24' W 073°34'3 3.3
2014-Oct-10 19:34N 45°24' W 073°39'9 9.2
2014-Oct-10 18:34N 45°21' W 073°51'4 4.3
2014-Oct-10 17:31N 45°18' W 073°56'1 1.6
2014-Oct-10 16:33N 45°17' W 073°57'3 3.2
2014-Oct-10 15:33N 45°14' W 073°59'8 8.2
2014-Oct-10 14:33N 45°14' W 074°11'  
Track history (hours):
 
Tides and Currents Weather Stations Pressure Air Temp Water Temp Dewpoint Dewpoint Depression Visibility Wind Speed Wind Dir Waves Ship Positions

Sarah Desgagnes

Last reported at 2014-Oct-20 14:33 UTC. Time now 2014-Oct-23 06:41 UTC.
Position N 43°59' W 076°33'.

Length 148 m; draft 7.3 m.

Type: Tanker. MMSI: 316012308.

Date/timePositionNaut miles runAvg speedWind from/ knotsBaromVisibWave heightAir tempDewpointWater temp
2014-Oct-20 14:33N 43°59' W 076°33'1312.8
2014-Oct-20 13:33N 44°08' W 076°20'1212.0
2014-Oct-20 12:33N 44°15' W 076°06'83 7.3
2014-Oct-20 01:15N 45°04' W 074°32'6 8.5
2014-Oct-20 00:34N 45°08' W 074°26'1111.0
2014-Oct-19 23:34N 45°14' W 074°13'9 8.7
2014-Oct-19 22:34N 45°14' W 074°00'6 5.6
2014-Oct-19 21:34N 45°18' W 073°56'1 1.0
2014-Oct-19 20:34N 45°19' W 073°55'2 2.2
2014-Oct-19 19:33N 45°21' W 073°53'6 5.5
2014-Oct-19 18:34N 45°24' W 073°47'7 7.4
2014-Oct-19 17:34N 45°24' W 073°36'2 2.0
2014-Oct-19 16:33N 45°24' W 073°33'5 5.0
2014-Oct-19 15:33N 45°29' W 073°31'1 1.0
2014-Oct-19 14:33N 45°30' W 073°31'3 3.2
2014-Oct-19 13:33N 45°33' W 073°31'3 0.1
2014-Oct-18 13:33N 45°37' W 073°30'6 4.4
2014-Oct-18 12:15N 45°31' W 073°31'2 2.3
2014-Oct-18 11:33N 45°29' W 073°31'4 4.0
2014-Oct-18 10:33N 45°26' W 073°30'3 3.1
2014-Oct-18 09:33N 45°24' W 073°34'3 2.9
2014-Oct-18 08:33N 45°24' W 073°38'5 4.8
2014-Oct-18 07:33N 45°24' W 073°45'9 8.6
2014-Oct-18 06:33N 45°19' W 073°55'1 1.0
2014-Oct-18 05:33N 45°18' W 073°56'3 3.4
2014-Oct-18 04:33N 45°15' W 073°58'7 6.7
2014-Oct-18 03:33N 45°14' W 074°07'102 8.2
2014-Oct-17 15:13N 44°15' W 076°05'912.9
2014-Oct-17 14:33N 44°12' W 076°16'1313.0
2014-Oct-17 13:33N 44°02' W 076°27'  
2014-Oct-15 03:00N 43°36' W 078°18'7212.9 150 / 131009.2 20.316.016.0
2014-Oct-14 21:24N 43°56' W 076°42'1012.2
2014-Oct-14 20:33N 44°01' W 076°30'1211.8
2014-Oct-14 19:33N 44°10' W 076°19'1111.0
2014-Oct-14 18:33N 44°15' W 076°06'83 6.8
2014-Oct-14 06:22N 45°04' W 074°31'7 8.8
2014-Oct-14 05:33N 45°09' W 074°23'1110.8
2014-Oct-14 04:33N 45°14' W 074°10'8 7.5
2014-Oct-14 03:33N 45°14' W 073°59'5 4.7
2014-Oct-14 02:33N 45°18' W 073°56'1 0.8
2014-Oct-14 01:33N 45°19' W 073°55'1 1.2
2014-Oct-14 00:33N 45°20' W 073°54'6 6.1
2014-Oct-13 23:33N 45°24' W 073°47'7 6.9
2014-Oct-13 22:33N 45°24' W 073°38'3 2.8
2014-Oct-13 21:33N 45°24' W 073°34'3 3.3
2014-Oct-13 20:34N 45°27' W 073°30'3 3.2
2014-Oct-13 19:33N 45°30' W 073°31'0 0.5
2014-Oct-13 18:33N 45°30' W 073°31'0 0.4
2014-Oct-13 17:29N 45°31' W 073°31'4 3.9
2014-Oct-13 16:33N 45°34' W 073°31'4 0.2
2014-Oct-13 01:26N 45°38' W 073°30'1 1.1
2014-Oct-13 00:33N 45°37' W 073°30'0 0.0
2014-Oct-11 06:17N 45°37' W 073°30'9 1.1
2014-Oct-10 21:33N 45°27' W 073°30'4 3.9
2014-Oct-10 20:33N 45°24' W 073°34'3 3.3
2014-Oct-10 19:34N 45°24' W 073°39'9 9.2
2014-Oct-10 18:34N 45°21' W 073°51'4 4.3
2014-Oct-10 17:31N 45°18' W 073°56'1 1.6
2014-Oct-10 16:33N 45°17' W 073°57'3 3.2
2014-Oct-10 15:33N 45°14' W 073°59'8 8.2
2014-Oct-10 14:33N 45°14' W 074°11'  

Dump ship's entire track history